sensor_id;sensor_type;location;lat;lon;timestamp;pressure;altitude;pressure_sealevel;temperature;humidity
77881;BME280;67077;50.298;18.996;2023-04-24T00:02:12;97098.05;;;12.88;52.88
77881;BME280;67077;50.298;18.996;2023-04-24T00:04:41;97096.37;;;12.84;52.53
77881;BME280;67077;50.298;18.996;2023-04-24T00:07:12;97093.05;;;12.83;52.25
77881;BME280;67077;50.298;18.996;2023-04-24T00:09:40;97090.17;;;12.82;52.25
77881;BME280;67077;50.298;18.996;2023-04-24T00:12:09;97088.42;;;12.79;52.46
77881;BME280;67077;50.298;18.996;2023-04-24T00:14:37;97088.56;;;12.76;52.43
77881;BME280;67077;50.298;18.996;2023-04-24T00:17:06;97085.78;;;12.75;52.64
77881;BME280;67077;50.298;18.996;2023-04-24T00:19:33;97084.81;;;12.71;52.24
77881;BME280;67077;50.298;18.996;2023-04-24T00:22:02;97080.78;;;12.70;52.00
77881;BME280;67077;50.298;18.996;2023-04-24T00:24:31;97081.42;;;12.69;51.65
77881;BME280;67077;50.298;18.996;2023-04-24T00:27:00;97077.04;;;12.70;51.04
77881;BME280;67077;50.298;18.996;2023-04-24T00:29:28;97076.39;;;12.73;50.60
77881;BME280;67077;50.298;18.996;2023-04-24T00:31:57;97075.98;;;12.75;50.43
77881;BME280;67077;50.298;18.996;2023-04-24T00:34:25;97072.12;;;12.75;50.61
77881;BME280;67077;50.298;18.996;2023-04-24T00:36:53;97065.73;;;12.77;50.85
77881;BME280;67077;50.298;18.996;2023-04-24T00:39:21;97065.35;;;12.77;51.05
77881;BME280;67077;50.298;18.996;2023-04-24T00:41:50;97062.09;;;12.76;51.40
77881;BME280;67077;50.298;18.996;2023-04-24T00:44:19;97057.77;;;12.71;52.36
77881;BME280;67077;50.298;18.996;2023-04-24T00:46:47;97049.08;;;12.65;52.99
77881;BME280;67077;50.298;18.996;2023-04-24T00:49:22;97046.96;;;12.58;53.59
77881;BME280;67077;50.298;18.996;2023-04-24T00:51:50;97045.70;;;12.50;53.81
77881;BME280;67077;50.298;18.996;2023-04-24T00:54:18;97041.02;;;12.43;53.98
77881;BME280;67077;50.298;18.996;2023-04-24T00:56:49;97041.11;;;12.37;53.82
77881;BME280;67077;50.298;18.996;2023-04-24T00:59:19;97038.46;;;12.31;53.75
77881;BME280;67077;50.298;18.996;2023-04-24T01:01:47;97038.98;;;12.27;53.29
77881;BME280;67077;50.298;18.996;2023-04-24T01:04:16;97041.73;;;12.24;53.26
77881;BME280;67077;50.298;18.996;2023-04-24T01:06:45;97041.77;;;12.20;53.11
77881;BME280;67077;50.298;18.996;2023-04-24T01:09:14;97044.81;;;12.16;53.12
77881;BME280;67077;50.298;18.996;2023-04-24T01:11:43;97040.08;;;12.10;53.29
77881;BME280;67077;50.298;18.996;2023-04-24T01:14:11;97043.09;;;12.04;53.62
77881;BME280;67077;50.298;18.996;2023-04-24T01:16:39;97036.42;;;11.97;54.07
77881;BME280;67077;50.298;18.996;2023-04-24T01:19:10;97036.16;;;11.89;54.44
77881;BME280;67077;50.298;18.996;2023-04-24T01:21:41;97037.88;;;11.79;55.10
77881;BME280;67077;50.298;18.996;2023-04-24T01:24:09;97032.91;;;11.69;55.57
77881;BME280;67077;50.298;18.996;2023-04-24T01:26:37;97029.96;;;11.59;56.02
77881;BME280;67077;50.298;18.996;2023-04-24T01:29:05;97032.77;;;11.50;56.27
77881;BME280;67077;50.298;18.996;2023-04-24T01:31:34;97027.41;;;11.42;56.22
77881;BME280;67077;50.298;18.996;2023-04-24T01:34:03;97026.27;;;11.35;56.53
77881;BME280;67077;50.298;18.996;2023-04-24T01:36:31;97023.50;;;11.29;56.57
77881;BME280;67077;50.298;18.996;2023-04-24T01:38:59;97022.80;;;11.25;56.51
77881;BME280;67077;50.298;18.996;2023-04-24T01:41:28;97017.48;;;11.22;56.41
77881;BME280;67077;50.298;18.996;2023-04-24T01:43:57;97012.19;;;11.19;56.51
77881;BME280;67077;50.298;18.996;2023-04-24T01:46:25;97013.40;;;11.15;56.71
77881;BME280;67077;50.298;18.996;2023-04-24T01:48:54;97011.15;;;11.12;56.39
77881;BME280;67077;50.298;18.996;2023-04-24T01:51:23;97011.02;;;11.10;56.40
77881;BME280;67077;50.298;18.996;2023-04-24T01:53:51;97002.34;;;11.09;55.84
77881;BME280;67077;50.298;18.996;2023-04-24T01:56:20;97004.11;;;11.11;55.54
77881;BME280;67077;50.298;18.996;2023-04-24T01:58:50;97002.46;;;11.14;55.12
77881;BME280;67077;50.298;18.996;2023-04-24T02:01:20;97004.05;;;11.15;55.17
77881;BME280;67077;50.298;18.996;2023-04-24T02:03:48;97005.34;;;11.15;55.11
77881;BME280;67077;50.298;18.996;2023-04-24T02:06:16;97004.73;;;11.14;55.04
77881;BME280;67077;50.298;18.996;2023-04-24T02:08:44;97004.34;;;11.12;54.88
77881;BME280;67077;50.298;18.996;2023-04-24T02:11:12;97001.00;;;11.09;54.85
77881;BME280;67077;50.298;18.996;2023-04-24T02:13:40;96999.06;;;11.06;54.87
77881;BME280;67077;50.298;18.996;2023-04-24T02:16:09;96999.44;;;11.02;54.79
77881;BME280;67077;50.298;18.996;2023-04-24T02:18:37;96993.43;;;10.99;54.64
77881;BME280;67077;50.298;18.996;2023-04-24T02:21:05;96992.27;;;10.98;54.47
77881;BME280;67077;50.298;18.996;2023-04-24T02:23:33;96989.35;;;10.97;54.39
77881;BME280;67077;50.298;18.996;2023-04-24T02:26:01;96986.45;;;10.95;54.45
77881;BME280;67077;50.298;18.996;2023-04-24T02:28:29;96983.61;;;10.92;54.28
77881;BME280;67077;50.298;18.996;2023-04-24T02:30:57;96984.19;;;10.91;54.21
77881;BME280;67077;50.298;18.996;2023-04-24T02:33:26;96980.92;;;10.89;54.16
77881;BME280;67077;50.298;18.996;2023-04-24T02:35:54;96974.96;;;10.87;54.09
77881;BME280;67077;50.298;18.996;2023-04-24T02:38:22;96978.73;;;10.86;53.76
77881;BME280;67077;50.298;18.996;2023-04-24T02:40:50;96978.31;;;10.86;53.80
77881;BME280;67077;50.298;18.996;2023-04-24T02:43:18;96977.43;;;10.85;53.82
77881;BME280;67077;50.298;18.996;2023-04-24T02:45:46;96980.27;;;10.83;53.72
77881;BME280;67077;50.298;18.996;2023-04-24T02:48:14;96979.48;;;10.81;53.75
77881;BME280;67077;50.298;18.996;2023-04-24T02:50:42;96982.22;;;10.79;53.69
77881;BME280;67077;50.298;18.996;2023-04-24T02:53:10;96976.52;;;10.76;53.60
77881;BME280;67077;50.298;18.996;2023-04-24T02:55:38;96971.09;;;10.75;53.40
77881;BME280;67077;50.298;18.996;2023-04-24T02:58:06;96972.66;;;10.75;53.15
77881;BME280;67077;50.298;18.996;2023-04-24T03:00:34;96972.36;;;10.77;52.83
77881;BME280;67077;50.298;18.996;2023-04-24T03:03:02;96973.80;;;10.80;52.81
77881;BME280;67077;50.298;18.996;2023-04-24T03:05:30;96968.46;;;10.81;52.66
77881;BME280;67077;50.298;18.996;2023-04-24T03:07:59;96969.12;;;10.82;52.67
77881;BME280;67077;50.298;18.996;2023-04-24T03:10:27;96969.98;;;10.82;52.61
77881;BME280;67077;50.298;18.996;2023-04-24T03:12:55;96965.50;;;10.82;52.40
77881;BME280;67077;50.298;18.996;2023-04-24T03:15:23;96966.79;;;10.82;52.32
77881;BME280;67077;50.298;18.996;2023-04-24T03:17:51;96966.95;;;10.82;52.22
77881;BME280;67077;50.298;18.996;2023-04-24T03:20:19;96965.14;;;10.83;51.92
77881;BME280;67077;50.298;18.996;2023-04-24T03:22:47;96968.98;;;10.84;51.91
77881;BME280;67077;50.298;18.996;2023-04-24T03:25:16;96969.95;;;10.84;51.77
77881;BME280;67077;50.298;18.996;2023-04-24T03:27:44;96965.86;;;10.85;51.54
77881;BME280;67077;50.298;18.996;2023-04-24T03:30:12;96970.58;;;10.88;51.49
77881;BME280;67077;50.298;18.996;2023-04-24T03:32:40;96969.42;;;10.90;51.52
77881;BME280;67077;50.298;18.996;2023-04-24T03:35:08;96973.54;;;10.91;51.50
77881;BME280;67077;50.298;18.996;2023-04-24T03:37:36;96976.42;;;10.92;51.72
77881;BME280;67077;50.298;18.996;2023-04-24T03:40:05;96972.42;;;10.92;51.68
77881;BME280;67077;50.298;18.996;2023-04-24T03:42:34;96974.45;;;10.94;51.45
77881;BME280;67077;50.298;18.996;2023-04-24T03:45:03;96971.34;;;10.97;51.21
77881;BME280;67077;50.298;18.996;2023-04-24T03:47:31;96970.02;;;11.00;51.19
77881;BME280;67077;50.298;18.996;2023-04-24T03:49:59;96967.02;;;11.04;50.93
77881;BME280;67077;50.298;18.996;2023-04-24T03:52:27;96966.11;;;11.09;50.78
77881;BME280;67077;50.298;18.996;2023-04-24T03:54:55;96963.73;;;11.14;50.59
77881;BME280;67077;50.298;18.996;2023-04-24T03:57:23;96973.60;;;11.18;50.53
77881;BME280;67077;50.298;18.996;2023-04-24T03:59:51;96975.27;;;11.22;50.49
77881;BME280;67077;50.298;18.996;2023-04-24T04:02:21;96978.13;;;11.26;50.32
77881;BME280;67077;50.298;18.996;2023-04-24T04:04:49;96974.06;;;11.30;50.24
77881;BME280;67077;50.298;18.996;2023-04-24T04:07:17;96976.11;;;11.36;50.17
77881;BME280;67077;50.298;18.996;2023-04-24T04:09:45;96976.74;;;11.54;49.92
77881;BME280;67077;50.298;18.996;2023-04-24T04:12:13;96974.54;;;11.80;49.38
77881;BME280;67077;50.298;18.996;2023-04-24T04:14:41;96973.36;;;12.07;48.86
77881;BME280;67077;50.298;18.996;2023-04-24T04:17:09;96970.60;;;12.30;48.23
77881;BME280;67077;50.298;18.996;2023-04-24T04:19:38;96970.49;;;12.42;47.64
77881;BME280;67077;50.298;18.996;2023-04-24T04:22:06;96969.10;;;12.42;47.53
77881;BME280;67077;50.298;18.996;2023-04-24T04:24:35;96969.69;;;12.42;47.49
77881;BME280;67077;50.298;18.996;2023-04-24T04:27:05;96966.39;;;12.39;47.57
77881;BME280;67077;50.298;18.996;2023-04-24T04:29:33;96966.48;;;12.42;47.56
77881;BME280;67077;50.298;18.996;2023-04-24T04:32:02;96963.88;;;12.62;47.15
77881;BME280;67077;50.298;18.996;2023-04-24T04:34:30;96962.33;;;12.81;46.51
77881;BME280;67077;50.298;18.996;2023-04-24T04:36:59;96962.23;;;12.81;46.68
77881;BME280;67077;50.298;18.996;2023-04-24T04:39:29;96965.27;;;12.74;46.72
77881;BME280;67077;50.298;18.996;2023-04-24T04:41:58;96962.96;;;12.71;46.87
77881;BME280;67077;50.298;18.996;2023-04-24T04:44:26;96963.51;;;12.72;47.00
77881;BME280;67077;50.298;18.996;2023-04-24T04:46:55;96963.58;;;12.88;46.62
77881;BME280;67077;50.298;18.996;2023-04-24T04:49:24;96964.04;;;13.10;46.25
77881;BME280;67077;50.298;18.996;2023-04-24T04:51:52;96968.51;;;13.27;45.97
77881;BME280;67077;50.298;18.996;2023-04-24T04:54:20;96963.41;;;13.39;45.59
77881;BME280;67077;50.298;18.996;2023-04-24T04:56:51;96966.13;;;13.51;45.22
77881;BME280;67077;50.298;18.996;2023-04-24T04:59:19;96964.72;;;13.65;44.67
77881;BME280;67077;50.298;18.996;2023-04-24T05:01:47;96964.92;;;13.81;44.30
77881;BME280;67077;50.298;18.996;2023-04-24T05:04:15;96966.06;;;13.96;44.01
77881;BME280;67077;50.298;18.996;2023-04-24T05:06:43;96963.77;;;14.12;43.68
77881;BME280;67077;50.298;18.996;2023-04-24T05:09:12;96963.13;;;14.28;43.44
77881;BME280;67077;50.298;18.996;2023-04-24T05:11:40;96961.46;;;14.42;43.13
77881;BME280;67077;50.298;18.996;2023-04-24T05:14:08;96962.58;;;14.56;42.75
77881;BME280;67077;50.298;18.996;2023-04-24T05:16:36;96961.16;;;14.71;42.67
77881;BME280;67077;50.298;18.996;2023-04-24T05:19:05;96965.61;;;14.88;42.70
77881;BME280;67077;50.298;18.996;2023-04-24T05:21:33;96960.08;;;15.10;42.39
77881;BME280;67077;50.298;18.996;2023-04-24T05:24:01;96956.92;;;15.31;42.31
77881;BME280;67077;50.298;18.996;2023-04-24T05:26:29;96958.39;;;15.50;41.46
77881;BME280;67077;50.298;18.996;2023-04-24T05:28:57;96955.91;;;15.60;41.19
77881;BME280;67077;50.298;18.996;2023-04-24T05:31:25;96946.04;;;15.67;40.50
77881;BME280;67077;50.298;18.996;2023-04-24T05:33:53;96951.73;;;15.70;40.31
77881;BME280;67077;50.298;18.996;2023-04-24T05:36:21;96951.13;;;15.72;40.39
77881;BME280;67077;50.298;18.996;2023-04-24T05:38:49;96952.23;;;15.71;39.85
77881;BME280;67077;50.298;18.996;2023-04-24T05:41:21;96953.45;;;15.65;39.89
77881;BME280;67077;50.298;18.996;2023-04-24T05:43:50;96953.64;;;15.64;40.79
77881;BME280;67077;50.298;18.996;2023-04-24T05:46:18;96950.18;;;15.66;41.16
77881;BME280;67077;50.298;18.996;2023-04-24T05:48:47;96949.88;;;15.64;41.24
77881;BME280;67077;50.298;18.996;2023-04-24T05:51:14;96949.42;;;15.59;41.85
77881;BME280;67077;50.298;18.996;2023-04-24T05:53:43;96946.88;;;15.53;41.91
77881;BME280;67077;50.298;18.996;2023-04-24T05:56:11;96945.27;;;15.49;42.24
77881;BME280;67077;50.298;18.996;2023-04-24T05:58:39;96949.13;;;15.46;42.39
77881;BME280;67077;50.298;18.996;2023-04-24T06:03:57;96944.20;;;15.39;43.21
77881;BME280;67077;50.298;18.996;2023-04-24T06:06:52;96945.45;;;15.42;43.45
77881;BME280;67077;50.298;18.996;2023-04-24T06:09:25;96947.23;;;15.46;43.73
77881;BME280;67077;50.298;18.996;2023-04-24T06:11:53;96944.01;;;15.50;43.99
77881;BME280;67077;50.298;18.996;2023-04-24T06:14:21;96944.58;;;15.55;43.92
77881;BME280;67077;50.298;18.996;2023-04-24T06:16:49;96941.64;;;15.61;43.52
77881;BME280;67077;50.298;18.996;2023-04-24T06:19:17;96938.79;;;15.67;43.23
77881;BME280;67077;50.298;18.996;2023-04-24T06:21:45;96941.52;;;15.76;43.19
77881;BME280;67077;50.298;18.996;2023-04-24T06:24:16;96941.89;;;15.88;42.57
77881;BME280;67077;50.298;18.996;2023-04-24T06:26:44;96933.09;;;16.02;41.32
77881;BME280;67077;50.298;18.996;2023-04-24T06:29:13;96935.21;;;16.12;40.68
77881;BME280;67077;50.298;18.996;2023-04-24T06:31:41;96930.32;;;16.26;40.99
77881;BME280;67077;50.298;18.996;2023-04-24T06:34:09;96933.75;;;16.40;40.61
77881;BME280;67077;50.298;18.996;2023-04-24T06:36:37;96929.68;;;16.51;39.89
77881;BME280;67077;50.298;18.996;2023-04-24T06:39:05;96927.19;;;16.58;39.84
77881;BME280;67077;50.298;18.996;2023-04-24T06:41:34;96926.99;;;16.61;39.96
77881;BME280;67077;50.298;18.996;2023-04-24T06:44:02;96926.13;;;16.66;40.00
77881;BME280;67077;50.298;18.996;2023-04-24T06:46:31;96923.73;;;16.70;39.98
77881;BME280;67077;50.298;18.996;2023-04-24T06:48:59;96920.30;;;16.76;40.28
77881;BME280;67077;50.298;18.996;2023-04-24T06:51:29;96921.37;;;16.81;40.03
77881;BME280;67077;50.298;18.996;2023-04-24T06:53:57;96920.95;;;16.87;39.77
77881;BME280;67077;50.298;18.996;2023-04-24T06:56:25;96920.02;;;16.92;39.30
77881;BME280;67077;50.298;18.996;2023-04-24T06:58:54;96921.04;;;17.00;41.44
77881;BME280;67077;50.298;18.996;2023-04-24T07:01:22;96923.67;;;17.12;39.75
77881;BME280;67077;50.298;18.996;2023-04-24T07:03:50;96919.39;;;17.24;40.14
77881;BME280;67077;50.298;18.996;2023-04-24T07:06:17;96921.30;;;17.31;38.56
77881;BME280;67077;50.298;18.996;2023-04-24T07:08:49;96918.34;;;17.37;38.58
77881;BME280;67077;50.298;18.996;2023-04-24T07:11:17;96917.61;;;17.47;39.71
77881;BME280;67077;50.298;18.996;2023-04-24T07:13:45;96916.47;;;17.65;40.44
77881;BME280;67077;50.298;18.996;2023-04-24T07:16:13;96916.96;;;17.83;38.59
77881;BME280;67077;50.298;18.996;2023-04-24T07:18:41;96915.21;;;17.95;37.15
77881;BME280;67077;50.298;18.996;2023-04-24T07:21:09;96913.00;;;18.04;36.39
77881;BME280;67077;50.298;18.996;2023-04-24T07:23:38;96917.41;;;18.13;38.99
77881;BME280;67077;50.298;18.996;2023-04-24T07:26:06;96913.41;;;18.31;36.93
77881;BME280;67077;50.298;18.996;2023-04-24T07:28:34;96908.02;;;18.38;34.82
77881;BME280;67077;50.298;18.996;2023-04-24T07:31:02;96907.17;;;18.38;34.17
77881;BME280;67077;50.298;18.996;2023-04-24T07:33:30;96904.41;;;18.40;35.58
77881;BME280;67077;50.298;18.996;2023-04-24T07:35:58;96905.71;;;18.51;36.02
77881;BME280;67077;50.298;18.996;2023-04-24T07:38:29;96904.95;;;18.66;35.17
77881;BME280;67077;50.298;18.996;2023-04-24T07:40:57;96901.58;;;18.77;35.37
77881;BME280;67077;50.298;18.996;2023-04-24T07:43:25;96902.28;;;18.84;33.80
77881;BME280;67077;50.298;18.996;2023-04-24T07:45:53;96895.81;;;18.84;33.17
77881;BME280;67077;50.298;18.996;2023-04-24T07:48:21;96898.64;;;18.83;32.46
77881;BME280;67077;50.298;18.996;2023-04-24T07:50:55;96896.47;;;18.78;34.03
77881;BME280;67077;50.298;18.996;2023-04-24T07:53:23;96894.46;;;18.83;33.32
77881;BME280;67077;50.298;18.996;2023-04-24T07:55:51;96890.21;;;18.81;33.40
77881;BME280;67077;50.298;18.996;2023-04-24T07:58:19;96892.48;;;18.84;33.98
77881;BME280;67077;50.298;18.996;2023-04-24T08:00:50;96887.98;;;18.96;35.05
77881;BME280;67077;50.298;18.996;2023-04-24T08:03:58;96884.00;;;19.12;33.18
77881;BME280;67077;50.298;18.996;2023-04-24T08:06:26;96882.45;;;19.13;32.25
77881;BME280;67077;50.298;18.996;2023-04-24T08:08:58;96879.21;;;19.02;31.38
77881;BME280;67077;50.298;18.996;2023-04-24T08:11:26;96872.73;;;18.96;32.14
77881;BME280;67077;50.298;18.996;2023-04-24T08:13:58;96872.20;;;18.96;32.42
77881;BME280;67077;50.298;18.996;2023-04-24T08:16:27;96872.50;;;18.97;32.32
77881;BME280;67077;50.298;18.996;2023-04-24T08:18:55;96873.33;;;18.94;31.68
77881;BME280;67077;50.298;18.996;2023-04-24T08:21:22;96870.20;;;18.89;31.72
77881;BME280;67077;50.298;18.996;2023-04-24T08:23:50;96871.85;;;18.89;33.28
77881;BME280;67077;50.298;18.996;2023-04-24T08:26:18;96871.64;;;19.03;33.73
77881;BME280;67077;50.298;18.996;2023-04-24T08:28:57;96866.66;;;19.14;31.93
77881;BME280;67077;50.298;18.996;2023-04-24T08:31:55;96862.58;;;19.16;31.45
77881;BME280;67077;50.298;18.996;2023-04-24T08:34:23;96867.24;;;19.26;31.22
77881;BME280;67077;50.298;18.996;2023-04-24T08:36:52;96866.91;;;19.37;30.88
77881;BME280;67077;50.298;18.996;2023-04-24T08:39:27;96869.56;;;19.44;30.88
77881;BME280;67077;50.298;18.996;2023-04-24T08:42:23;96865.80;;;19.51;30.87
77881;BME280;67077;50.298;18.996;2023-04-24T08:45:01;96861.86;;;19.56;30.84
77881;BME280;67077;50.298;18.996;2023-04-24T08:58:06;96849.86;;;19.91;30.45
77881;BME280;67077;50.298;18.996;2023-04-24T09:00:36;96850.97;;;20.02;30.32
77881;BME280;67077;50.298;18.996;2023-04-24T09:03:17;96849.89;;;20.08;30.14
77881;BME280;67077;50.298;18.996;2023-04-24T09:05:55;96847.33;;;20.11;29.99
77881;BME280;67077;50.298;18.996;2023-04-24T09:08:25;96849.25;;;20.15;30.19
77881;BME280;67077;50.298;18.996;2023-04-24T09:10:54;96848.98;;;20.22;30.19
77881;BME280;67077;50.298;18.996;2023-04-24T09:13:27;96848.55;;;20.28;30.11
77881;BME280;67077;50.298;18.996;2023-04-24T09:15:56;96846.81;;;20.36;29.75
77881;BME280;67077;50.298;18.996;2023-04-24T09:18:27;96846.05;;;20.39;29.93
77881;BME280;67077;50.298;18.996;2023-04-24T09:21:10;96845.89;;;20.48;29.85
77881;BME280;67077;50.298;18.996;2023-04-24T09:23:39;96838.12;;;20.54;29.52
77881;BME280;67077;50.298;18.996;2023-04-24T09:26:09;96840.43;;;20.54;29.25
77881;BME280;67077;50.298;18.996;2023-04-24T09:28:41;96836.20;;;20.58;29.18
77881;BME280;67077;50.298;18.996;2023-04-24T09:31:19;96831.65;;;20.56;29.24
77881;BME280;67077;50.298;18.996;2023-04-24T09:33:57;96826.15;;;20.62;29.47
77881;BME280;67077;50.298;18.996;2023-04-24T09:36:48;96829.35;;;20.74;29.37
77881;BME280;67077;50.298;18.996;2023-04-24T09:39:17;96834.83;;;20.83;29.28
77881;BME280;67077;50.298;18.996;2023-04-24T09:42:05;96828.81;;;20.88;29.10
77881;BME280;67077;50.298;18.996;2023-04-24T09:44:42;96827.83;;;20.96;29.34
77881;BME280;67077;50.298;18.996;2023-04-24T09:47:12;96824.89;;;20.99;29.14
77881;BME280;67077;50.298;18.996;2023-04-24T09:53:24;96821.53;;;21.01;29.36
77881;BME280;67077;50.298;18.996;2023-04-24T09:55:52;96822.11;;;21.08;29.24
77881;BME280;67077;50.298;18.996;2023-04-24T09:58:26;96820.91;;;21.15;29.55
77881;BME280;67077;50.298;18.996;2023-04-24T10:00:55;96818.17;;;21.21;29.41
77881;BME280;67077;50.298;18.996;2023-04-24T10:03:25;96816.20;;;21.22;29.43
77881;BME280;67077;50.298;18.996;2023-04-24T10:06:03;96815.10;;;21.22;29.33
77881;BME280;67077;50.298;18.996;2023-04-24T10:08:37;96815.11;;;21.27;29.25
77881;BME280;67077;50.298;18.996;2023-04-24T10:11:07;96812.85;;;21.33;29.49
77881;BME280;67077;50.298;18.996;2023-04-24T10:13:37;96812.16;;;21.32;29.26
77881;BME280;67077;50.298;18.996;2023-04-24T10:16:08;96807.64;;;21.29;29.11
77881;BME280;67077;50.298;18.996;2023-04-24T10:21:26;96808.04;;;21.43;29.69
77881;BME280;67077;50.298;18.996;2023-04-24T10:24:03;96808.22;;;21.56;29.51
77881;BME280;67077;50.298;18.996;2023-04-24T10:29:25;96806.71;;;21.72;28.35
77881;BME280;67077;50.298;18.996;2023-04-24T10:35:25;96804.77;;;21.77;28.51
77881;BME280;67077;50.298;18.996;2023-04-24T10:38:22;96802.02;;;21.91;27.79
77881;BME280;67077;50.298;18.996;2023-04-24T10:41:08;96801.70;;;21.97;27.97
77881;BME280;67077;50.298;18.996;2023-04-24T10:43:39;96798.88;;;22.08;27.52
77881;BME280;67077;50.298;18.996;2023-04-24T10:48:51;96790.34;;;22.03;27.75
77881;BME280;67077;50.298;18.996;2023-04-24T11:09:22;96795.62;;;20.97;30.30
77881;BME280;67077;50.298;18.996;2023-04-24T11:12:16;96795.67;;;20.77;30.48
77881;BME280;67077;50.298;18.996;2023-04-24T11:15:12;96797.55;;;20.58;31.03
77881;BME280;67077;50.298;18.996;2023-04-24T11:17:42;96802.22;;;20.45;31.28
77881;BME280;67077;50.298;18.996;2023-04-24T11:20:33;96799.30;;;20.22;31.64
77881;BME280;67077;50.298;18.996;2023-04-24T11:23:04;96810.98;;;19.98;32.08
77881;BME280;67077;50.298;18.996;2023-04-24T11:25:38;96816.56;;;19.77;32.41
77881;BME280;67077;50.298;18.996;2023-04-24T11:28:24;96821.27;;;19.53;32.91
77881;BME280;67077;50.298;18.996;2023-04-24T11:31:39;96823.34;;;19.30;33.59
77881;BME280;67077;50.298;18.996;2023-04-24T11:40:39;96825.33;;;18.81;35.07
77881;BME280;67077;50.298;18.996;2023-04-24T11:43:32;96824.44;;;18.74;35.20
77881;BME280;67077;50.298;18.996;2023-04-24T11:46:26;96830.34;;;18.64;35.55
77881;BME280;67077;50.298;18.996;2023-04-24T11:49:00;96827.23;;;18.58;35.75
77881;BME280;67077;50.298;18.996;2023-04-24T11:51:29;96829.25;;;18.51;35.75
77881;BME280;67077;50.298;18.996;2023-04-24T12:06:32;96816.27;;;18.62;37.02
77881;BME280;67077;50.298;18.996;2023-04-24T12:09:01;96816.46;;;18.76;36.68
77881;BME280;67077;50.298;18.996;2023-04-24T12:11:30;96809.42;;;18.94;36.50
77881;BME280;67077;50.298;18.996;2023-04-24T12:14:10;96812.83;;;19.16;36.35
77881;BME280;67077;50.298;18.996;2023-04-24T12:16:38;96810.01;;;19.41;36.27
77881;BME280;67077;50.298;18.996;2023-04-24T12:19:06;96806.59;;;19.65;36.12
77881;BME280;67077;50.298;18.996;2023-04-24T12:21:35;96805.64;;;19.87;35.64
77881;BME280;67077;50.298;18.996;2023-04-24T12:24:06;96803.56;;;20.04;34.97
77881;BME280;67077;50.298;18.996;2023-04-24T12:26:38;96801.23;;;20.11;35.20
77881;BME280;67077;50.298;18.996;2023-04-24T12:29:20;96802.40;;;20.08;35.73
77881;BME280;67077;50.298;18.996;2023-04-24T12:31:51;96799.73;;;20.03;35.85
77881;BME280;67077;50.298;18.996;2023-04-24T12:37:32;96804.32;;;19.83;36.54
77881;BME280;67077;50.298;18.996;2023-04-24T12:40:11;96800.84;;;19.72;36.43
77881;BME280;67077;50.298;18.996;2023-04-24T12:45:13;96797.66;;;19.51;36.35
77881;BME280;67077;50.298;18.996;2023-04-24T12:47:45;96799.26;;;19.43;36.49
77881;BME280;67077;50.298;18.996;2023-04-24T12:50:15;96802.27;;;19.31;36.68
77881;BME280;67077;50.298;18.996;2023-04-24T12:52:44;96803.20;;;19.27;36.92
77881;BME280;67077;50.298;18.996;2023-04-24T12:55:14;96801.48;;;19.26;37.14
77881;BME280;67077;50.298;18.996;2023-04-24T12:57:44;96798.48;;;19.31;37.77
77881;BME280;67077;50.298;18.996;2023-04-24T13:00:13;96801.55;;;19.38;38.02
77881;BME280;67077;50.298;18.996;2023-04-24T13:02:42;96795.13;;;19.44;38.56
77881;BME280;67077;50.298;18.996;2023-04-24T13:05:16;96795.65;;;19.38;38.81
77881;BME280;67077;50.298;18.996;2023-04-24T13:07:48;96795.58;;;19.32;39.09
77881;BME280;67077;50.298;18.996;2023-04-24T13:10:17;96794.55;;;19.31;38.92
77881;BME280;67077;50.298;18.996;2023-04-24T13:12:45;96791.23;;;19.30;39.09
77881;BME280;67077;50.298;18.996;2023-04-24T13:15:14;96789.95;;;19.27;39.20
77881;BME280;67077;50.298;18.996;2023-04-24T13:17:44;96788.05;;;19.27;39.42
77881;BME280;67077;50.298;18.996;2023-04-24T13:31:27;96784.90;;;18.88;39.00
77881;BME280;67077;50.298;18.996;2023-04-24T13:33:55;96780.19;;;18.74;39.17
77881;BME280;67077;50.298;18.996;2023-04-24T13:36:24;96781.65;;;18.70;39.09
77881;BME280;67077;50.298;18.996;2023-04-24T13:38:52;96783.02;;;18.67;39.48
77881;BME280;67077;50.298;18.996;2023-04-24T13:41:23;96776.05;;;18.60;39.77
77881;BME280;67077;50.298;18.996;2023-04-24T13:43:51;96774.89;;;18.51;40.14
77881;BME280;67077;50.298;18.996;2023-04-24T13:46:19;96772.36;;;18.46;40.12
77881;BME280;67077;50.298;18.996;2023-04-24T13:48:51;96772.60;;;18.40;40.15
77881;BME280;67077;50.298;18.996;2023-04-24T13:51:23;96769.17;;;18.23;40.34
77881;BME280;67077;50.298;18.996;2023-04-24T13:53:51;96772.73;;;18.01;40.94
77881;BME280;67077;50.298;18.996;2023-04-24T13:56:22;96774.65;;;17.83;41.50
77881;BME280;67077;50.298;18.996;2023-04-24T13:58:51;96773.83;;;17.65;41.99
77881;BME280;67077;50.298;18.996;2023-04-24T14:01:20;96776.27;;;17.47;42.27
77881;BME280;67077;50.298;18.996;2023-04-24T14:04:11;96773.66;;;17.33;43.00
77881;BME280;67077;50.298;18.996;2023-04-24T14:06:41;96778.89;;;17.29;43.40
77881;BME280;67077;50.298;18.996;2023-04-24T14:09:19;96779.52;;;17.27;44.07
77881;BME280;67077;50.298;18.996;2023-04-24T14:11:48;96778.41;;;17.18;44.36
77881;BME280;67077;50.298;18.996;2023-04-24T14:14:29;96784.13;;;17.03;44.87
77881;BME280;67077;50.298;18.996;2023-04-24T14:17:06;96787.36;;;16.96;45.54
77881;BME280;67077;50.298;18.996;2023-04-24T14:19:52;96788.02;;;16.92;46.12
77881;BME280;67077;50.298;18.996;2023-04-24T14:22:50;96790.33;;;16.87;46.64
77881;BME280;67077;50.298;18.996;2023-04-24T14:29:12;96790.80;;;16.65;48.14
77881;BME280;67077;50.298;18.996;2023-04-24T14:34:28;96789.00;;;16.39;49.16
77881;BME280;67077;50.298;18.996;2023-04-24T14:36:59;96788.66;;;16.30;49.67
77881;BME280;67077;50.298;18.996;2023-04-24T14:39:29;96788.64;;;16.26;50.14